Latest Weather Observations for Esperance Harbour

IDW60801

Issued at 9:53 pm WST Monday 19 November 2018 (issued every 10 minutes, with the page automatically refreshed every 10 minutes)

About weather observations | Map of weather stations | Latest weather observations for WA | Other Formats
Station Details ID: 109504 Name: ESPERANCE NTC AWS Lat: -33.87 Lon: 121.90 Height: 0.0 m
Data from the previous 72 hours. | See also: Recent months for locations in Western Australia
Date/Time
WST
Temp
°C
App
Temp
°C
Dew
Point
°C
Rel
Hum
%
Delta-T
°C
Wind Press
QNH
hPa
Press
MSL
hPa
Rain since
9am
mm
Dir  Spd
km/h
Gust
km/h
Spd
kts
Gust
kts
19/09:30pm 14.2 - - - - - - - - - 1019.8 1019.8 -
19/09:00pm 14.2 - - - - - - - - - 1019.8 1019.8 -
19/08:30pm 14.2 - - - - - - - - - 1019.7 1019.7 -
19/08:00pm 14.5 - - - - - - - - - 1019.4 1019.4 -
19/07:30pm 14.7 - - - - - - - - - 1019.0 1019.0 -
19/07:00pm 14.9 - - - - - - - - - 1018.6 1018.6 -
19/06:30pm 15.0 - - - - - - - - - 1018.3 1018.3 -
19/06:00pm 14.8 - - - - - - - - - 1017.9 1017.9 -
19/05:30pm 14.8 - - - - - - - - - 1017.5 1017.5 -
19/05:00pm 14.9 - - - - - - - - - 1017.1 1017.1 -
19/04:30pm 15.7 - - - - - - - - - 1016.8 1016.8 -
19/04:00pm 15.9 - - - - - - - - - 1016.6 1016.6 -
19/03:30pm 16.4 - - - - - - - - - 1016.4 1016.4 -
19/03:00pm 16.3 - - - - - - - - - 1016.4 1016.4 -
19/02:30pm 15.9 - - - - - - - - - 1016.5 1016.5 -
19/02:00pm 17.4 - - - - - - - - - 1016.3 1016.3 -
19/01:30pm 17.1 - - - - - - - - - 1016.2 1016.2 -
19/01:00pm 16.6 - - - - - - - - - 1016.3 1016.3 -
19/12:30pm 17.6 - - - - - - - - - 1016.3 1016.3 -
19/12:00pm 17.7 - - - - - - - - - 1016.3 1016.3 -
19/11:30am 17.4 - - - - - - - - - 1016.3 1016.3 -
19/11:00am 16.8 - - - - - - - - - 1016.6 1016.6 -
19/10:30am 16.1 - - - - - - - - - 1016.7 1016.7 -
19/10:00am 16.4 - - - - - - - - - 1016.5 1016.5 -
19/09:30am 16.9 - - - - - - - - - 1016.2 1016.2 -
19/09:00am 16.5 - - - - - - - - - 1016.2 1016.2 -
19/08:30am 16.0 - - - - - - - - - 1016.2 1016.2 -
19/08:00am 15.6 - - - - - - - - - 1016.1 1016.1 -
19/07:30am 15.6 - - - - - - - - - 1015.9 1015.9 -
19/07:00am 15.5 - - - - - - - - - 1015.6 1015.6 -
19/06:30am 15.3 - - - - - - - - - 1015.4 1015.4 -
19/06:00am 15.1 - - - - - - - - - 1015.2 1015.2 -
19/05:30am 15.1 - - - - - - - - - 1014.9 1014.9 -
19/05:00am 14.9 - - - - - - - - - 1014.5 1014.5 -
19/04:30am 15.1 - - - - - - - - - 1014.0 1014.0 -
19/04:00am 15.3 - - - - - - - - - 1013.7 1013.7 -
19/03:30am 15.3 - - - - - - - - - 1013.1 1013.1 -
19/03:00am 15.5 - - - - - - - - - 1012.8 1012.8 -
19/02:30am 15.9 - - - - - - - - - 1012.4 1012.4 -
19/02:00am 15.7 - - - - - - - - - 1012.2 1012.2 -
19/01:30am 16.2 - - - - - - - - - 1012.2 1012.2 -
19/01:00am 16.0 - - - - - - - - - 1012.3 1012.3 -
19/12:30am 16.2 - - - - - - - - - 1012.4 1012.4 -
19/12:00am 16.2 - - - - - - - - - 1012.6 1012.6 -
 
Date/Time
WST
Temp
°C
App
Temp
°C
Dew
Point
°C
Rel
Hum
%
Delta-T
°C
Wind Press
QNH
hPa
Press
MSL
hPa
Rain since
9am
mm
Dir  Spd
km/h
Gust
km/h
Spd
kts
Gust
kts
18/11:30pm 16.0 - - - - - - - - - 1012.4 1012.4 -
18/11:00pm 16.6 - - - - - - - - - 1012.2 1012.2 -
18/10:30pm 17.7 - - - - - - - - - 1011.9 1011.9 -
18/10:00pm 18.0 - - - - - - - - - 1011.8 1011.8 -
18/09:30pm 17.9 - - - - - - - - - 1011.9 1011.9 -
18/09:00pm 17.9 - - - - - - - - - 1011.9 1011.9 -
18/08:30pm 17.4 - - - - - - - - - 1011.8 1011.8 -
18/08:00pm 18.0 - - - - - - - - - 1011.3 1011.3 -
18/07:30pm 18.0 - - - - - - - - - 1011.1 1011.1 -
18/07:00pm 18.1 - - - - - - - - - 1010.8 1010.8 -
18/06:30pm 18.1 - - - - - - - - - 1010.4 1010.4 -
18/06:00pm 18.5 - - - - - - - - - 1009.8 1009.8 -
18/05:30pm 18.6 - - - - - - - - - 1009.6 1009.6 -
18/05:00pm 19.6 - - - - - - - - - 1009.7 1009.7 -
18/04:30pm 19.4 - - - - - - - - - 1009.4 1009.4 -
18/04:00pm 19.0 - - - - - - - - - 1009.4 1009.4 -
18/03:30pm 18.8 - - - - - - - - - 1009.2 1009.2 -
18/03:00pm 19.0 - - - - - - - - - 1009.2 1009.2 -
18/02:30pm 18.7 - - - - - - - - - 1009.1 1009.1 -
18/02:00pm 18.6 - - - - - - - - - 1009.3 1009.3 -
18/01:30pm 18.8 - - - - - - - - - 1009.4 1009.4 -
18/01:00pm 19.1 - - - - - - - - - 1009.4 1009.4 -
18/12:30pm 19.3 - - - - - - - - - 1009.5 1009.5 -
18/12:00pm 18.6 - - - - - - - - - 1009.6 1009.6 -
18/11:30am 18.5 - - - - - - - - - 1010.0 1010.0 -
18/11:00am 18.6 - - - - - - - - - 1010.0 1010.0 -
18/10:30am 18.2 - - - - - - - - - 1010.1 1010.1 -
18/10:00am 18.2 - - - - - - - - - 1010.2 1010.2 -
18/09:30am 18.0 - - - - - - - - - 1010.1 1010.1 -
18/09:00am 17.3 - - - - - - - - - 1009.9 1009.9 -
18/08:30am 17.4 - - - - - - - - - 1009.7 1009.7 -
18/08:00am 17.1 - - - - - - - - - 1009.5 1009.5 -
18/07:30am 17.1 - - - - - - - - - 1009.4 1009.4 -
18/07:00am 17.0 - - - - - - - - - 1008.9 1008.9 -
18/06:30am 16.3 - - - - - - - - - 1008.7 1008.7 -
18/06:00am 16.5 - - - - - - - - - 1008.4 1008.4 -
18/05:30am 16.2 - - - - - - - - - 1008.1 1008.1 -
18/05:00am 16.3 - - - - - - - - - 1008.1 1008.1 -
18/04:30am 16.5 - - - - - - - - - 1007.8 1007.8 -
18/04:00am 16.7 - - - - - - - - - 1007.2 1007.2 -
18/03:30am 16.7 - - - - - - - - - 1006.7 1006.7 -
18/03:00am 17.1 - - - - - - - - - 1006.7 1006.7 -
18/02:30am 17.3 - - - - - - - - - 1006.6 1006.6 -
18/02:00am 17.5 - - - - - - - - - 1006.5 1006.5 -
18/01:30am 17.7 - - - - - - - - - 1006.3 1006.3 -
18/01:00am 18.0 - - - - - - - - - 1006.3 1006.3 -
18/12:30am 18.7 - - - - - - - - - 1006.3 1006.3 -
18/12:00am 19.8 - - - - - - - - - 1006.5 1006.5 -
 
Date/Time
WST
Temp
°C
App
Temp
°C
Dew
Point
°C
Rel
Hum
%
Delta-T
°C
Wind Press
QNH
hPa
Press
MSL
hPa
Rain since
9am
mm
Dir  Spd
km/h
Gust
km/h
Spd
kts
Gust
kts
17/11:30pm 20.8 - - - - - - - - - 1006.1 1006.1 -
17/11:00pm 23.7 - - - - - - - - - 1005.5 1005.5 -
17/10:30pm 23.8 - - - - - - - - - 1005.5 1005.5 -
17/10:00pm 22.4 - - - - - - - - - 1004.9 1004.9 -
17/09:30pm 22.5 - - - - - - - - - 1005.3 1005.3 -
17/09:00pm 22.5 - - - - - - - - - 1005.6 1005.6 -
17/08:30pm 22.0 - - - - - - - - - 1005.3 1005.3 -
17/08:00pm 21.7 - - - - - - - - - 1005.4 1005.4 -
17/07:30pm 21.1 - - - - - - - - - 1005.7 1005.7 -
17/07:00pm 20.9 - - - - - - - - - 1005.5 1005.5 -
17/06:30pm 20.8 - - - - - - - - - 1005.4 1005.4 -
17/06:00pm 21.1 - - - - - - - - - 1005.2 1005.2 -
17/05:30pm 21.5 - - - - - - - - - 1005.6 1005.6 -
17/05:00pm 21.6 - - - - - - - - - 1005.2 1005.2 -
17/04:30pm 21.8 - - - - - - - - - 1005.0 1005.0 -
17/04:00pm 21.7 - - - - - - - - - 1005.2 1005.2 -
17/03:30pm 22.4 - - - - - - - - - 1005.6 1005.6 -
17/03:00pm 23.5 - - - - - - - - - 1006.1 1006.1 -
17/02:30pm 24.2 - - - - - - - - - 1006.1 1006.1 -
17/02:00pm 25.1 - - - - - - - - - 1006.4 1006.4 -
17/01:30pm 24.9 - - - - - - - - - 1006.9 1006.9 -
17/01:00pm 24.7 - - - - - - - - - 1007.7 1007.7 -
17/12:30pm 25.1 - - - - - - - - - 1008.2 1008.2 -
17/12:00pm 27.9 - - - - - - - - - 1008.6 1008.6 -
17/11:30am 26.6 - - - - - - - - - 1008.5 1008.5 -
17/11:00am 25.9 - - - - - - - - - 1009.0 1009.0 -
17/10:30am 26.2 - - - - - - - - - 1009.8 1009.8 -
17/10:00am 26.8 - - - - - - - - - 1010.3 1010.3 -
17/09:30am 26.1 - - - - - - - - - 1010.7 1010.7 -
17/09:00am 26.0 - - - - - - - - - 1011.3 1011.3 -
17/08:30am 25.7 - - - - - - - - - 1011.8 1011.8 -
17/08:00am 24.5 - - - - - - - - - 1012.1 1012.1 -
17/07:30am 23.7 - - - - - - - - - 1012.7 1012.7 -
17/07:00am 23.4 - - - - - - - - - 1012.9 1012.9 -
17/06:30am 23.4 - - - - - - - - - 1013.2 1013.2 -
17/06:00am 22.7 - - - - - - - - - 1014.3 1014.3 -
17/05:30am 24.1 - - - - - - - - - 1014.4 1014.4 -
17/05:00am 23.8 - - - - - - - - - 1014.0 1014.0 -
17/04:30am 24.8 - - - - - - - - - 1013.9 1013.9 -
17/04:00am 22.0 - - - - - - - - - 1013.6 1013.6 -
17/03:30am 20.7 - - - - - - - - - 1013.6 1013.6 -
17/03:00am 20.7 - - - - - - - - - 1013.7 1013.7 -
17/02:30am 20.4 - - - - - - - - - 1014.0 1014.0 -
17/02:00am 19.1 - - - - - - - - - 1014.8 1014.8 -
17/01:30am 18.7 - - - - - - - - - 1014.4 1014.4 -
17/01:00am 18.8 - - - - - - - - - 1014.1 1014.1 -
17/12:30am 18.9 - - - - - - - - - 1013.9 1013.9 -
17/12:00am 18.9 - - - - - - - - - 1014.3 1014.3 -
 
Date/Time
WST
Temp
°C
App
Temp
°C
Dew
Point
°C
Rel
Hum
%
Delta-T
°C
Wind Press
QNH
hPa
Press
MSL
hPa
Rain since
9am
mm
Dir  Spd
km/h
Gust
km/h
Spd
kts
Gust
kts
16/11:30pm 18.9 - - - - - - - - - 1014.9 1014.9 -
16/11:00pm 18.8 - - - - - - - - - 1015.7 1015.7 -
16/10:30pm 18.8 - - - - - - - - - 1016.2 1016.2 -
16/10:00pm 18.6 - - - - - - - - - 1017.2 1017.2 -

Other Formats:

Comma delimited format used in spreadsheet applications
http://www.bom.gov.au/fwo/IDW60801/IDW60801.95648.axf

JavaScript Object Notation format (JSON) in row-major order
http://www.bom.gov.au/fwo/IDW60801/IDW60801.95648.json